Time,TemperatureF,DewpointF,PressureIn,WindDirection,WindDirectionDegrees,WindSpeedMPH,WindSpeedGustMPH,Humidity,HourlyPrecipIn,Conditions,Clouds,dailyrainin,SolarRadiationWatts/m^2,SoftwareType,DateUTC
2013-04-01 00:23:00,22.0,7.0,-100.00,NNW,340,6.0,18.0,51,0.00,,,0.00,1.000000,,2013-04-01 04:23:00,
2013-04-01 00:33:00,22.0,7.0,-100.00,NNW,340,6.0,18.0,51,0.00,,,0.00,1.000000,,2013-04-01 04:33:00,
2013-04-01 00:43:00,22.0,7.0,-100.00,NNW,340,6.0,18.0,51,0.00,,,0.00,1.000000,,2013-04-01 04:43:00,
2013-04-01 00:52:00,22.0,7.0,-100.00,NNW,340,6.0,18.0,51,0.00,,,0.00,1.000000,,2013-04-01 04:52:00,
2013-04-01 01:22:00,20.0,6.0,-100.00,NNW,336,9.0,17.0,55,0.00,,,0.00,1.000000,,2013-04-01 05:22:00,
2013-04-01 01:32:00,20.0,6.0,-100.00,NNW,336,9.0,17.0,55,0.00,,,0.00,1.000000,,2013-04-01 05:32:00,
2013-04-01 01:42:00,20.0,6.0,-100.00,NNW,336,9.0,17.0,55,0.00,,,0.00,1.000000,,2013-04-01 05:42:00,
2013-04-01 01:52:00,20.0,6.0,-100.00,NNW,336,9.0,17.0,55,0.00,,,0.00,1.000000,,2013-04-01 05:52:00,
2013-04-01 02:23:00,19.0,12.0,-100.00,NW,321,5.0,17.0,75,0.00,,,0.00,1.000000,,2013-04-01 06:23:00,
2013-04-01 02:33:00,19.0,12.0,-100.00,NW,321,5.0,17.0,75,0.00,,,0.00,1.000000,,2013-04-01 06:33:00,
2013-04-01 02:43:00,19.0,12.0,-100.00,NW,321,5.0,17.0,75,0.00,,,0.00,1.000000,,2013-04-01 06:43:00,
2013-04-01 02:52:00,19.0,12.0,-100.00,NW,321,5.0,17.0,75,0.00,,,0.00,1.000000,,2013-04-01 06:52:00,
2013-04-01 03:22:00,19.0,10.0,-100.00,NW,324,5.0,14.0,66,0.00,,,0.00,1.000000,,2013-04-01 07:22:00,
2013-04-01 03:32:00,19.0,10.0,-100.00,NW,324,5.0,14.0,66,0.00,,,0.00,1.000000,,2013-04-01 07:32:00,
2013-04-01 03:42:00,19.0,10.0,-100.00,NW,324,5.0,14.0,66,0.00,,,0.00,1.000000,,2013-04-01 07:42:00,
2013-04-01 03:52:00,19.0,10.0,-100.00,NW,324,5.0,14.0,66,0.00,,,0.00,1.000000,,2013-04-01 07:52:00,
2013-04-01 04:22:00,18.0,14.0,-100.00,NW,310,5.0,12.0,85,0.00,,,0.00,1.000000,,2013-04-01 08:22:00,
2013-04-01 04:32:00,18.0,14.0,-100.00,NW,310,5.0,12.0,85,0.00,,,0.00,1.000000,,2013-04-01 08:32:00,
2013-04-01 04:43:00,18.0,14.0,-100.00,NW,310,5.0,12.0,85,0.00,,,0.00,1.000000,,2013-04-01 08:43:00,
2013-04-01 04:52:00,18.0,14.0,-100.00,NW,310,5.0,12.0,85,0.00,,,0.00,1.000000,,2013-04-01 08:52:00,
2013-04-01 05:22:00,18.0,11.0,-100.00,NW,326,3.0,10.0,72,0.00,,,0.00,1.000000,,2013-04-01 09:22:00,
2013-04-01 05:33:00,18.0,11.0,-100.00,NW,326,3.0,10.0,72,0.00,,,0.00,1.000000,,2013-04-01 09:33:00,
2013-04-01 05:42:00,18.0,11.0,-100.00,NW,326,3.0,10.0,72,0.00,,,0.00,1.000000,,2013-04-01 09:42:00,
2013-04-01 05:53:00,18.0,11.0,-100.00,NW,326,3.0,10.0,72,0.00,,,0.00,1.000000,,2013-04-01 09:53:00,
2013-04-01 06:23:00,18.0,8.0,-100.00,NW,305,5.0,10.0,64,0.00,,,0.00,1.000000,,2013-04-01 10:23:00,
2013-04-01 06:33:00,18.0,8.0,-100.00,NW,305,5.0,10.0,64,0.00,,,0.00,1.000000,,2013-04-01 10:33:00,
2013-04-01 06:42:00,18.0,8.0,-100.00,NW,305,5.0,10.0,64,0.00,,,0.00,1.000000,,2013-04-01 10:42:00,
2013-04-01 06:53:00,18.0,8.0,-100.00,NW,305,5.0,10.0,64,0.00,,,0.00,1.000000,,2013-04-01 10:53:00,
2013-04-01 07:23:00,17.0,13.0,-100.00,NW,316,3.0,10.0,83,0.00,,,0.00,1.000000,,2013-04-01 11:23:00,
2013-04-01 07:33:00,17.0,13.0,-100.00,NW,316,3.0,10.0,83,0.00,,,0.00,1.000000,,2013-04-01 11:33:00,
2013-04-01 07:42:00,17.0,13.0,-100.00,NW,316,3.0,10.0,83,0.00,,,0.00,1.000000,,2013-04-01 11:42:00,
2013-04-01 07:52:00,17.0,13.0,-100.00,NW,316,3.0,10.0,83,0.00,,,0.00,1.000000,,2013-04-01 11:52:00,
2013-04-01 08:23:00,17.0,12.0,-100.00,WNW,292,2.0,15.0,79,0.00,,,0.00,3.000000,,2013-04-01 12:23:00,
2013-04-01 08:32:00,17.0,12.0,-100.00,WNW,292,2.0,15.0,79,0.00,,,0.00,3.000000,,2013-04-01 12:32:00,
2013-04-01 08:42:00,17.0,12.0,-100.00,WNW,292,2.0,15.0,79,0.00,,,0.00,3.000000,,2013-04-01 12:42:00,
2013-04-01 08:52:00,17.0,12.0,-100.00,WNW,292,2.0,15.0,79,0.00,,,0.00,3.000000,,2013-04-01 12:52:00,
2013-04-01 09:22:00,19.0,7.0,-100.00,NW,312,9.0,20.0,60,0.00,,,0.00,56.000000,,2013-04-01 13:22:00,
2013-04-01 09:32:00,19.0,7.0,-100.00,NW,312,9.0,20.0,60,0.00,,,0.00,56.000000,,2013-04-01 13:32:00,
2013-04-01 09:42:00,19.0,7.0,-100.00,NW,312,9.0,20.0,60,0.00,,,0.00,56.000000,,2013-04-01 13:42:00,
2013-04-01 09:52:00,19.0,7.0,-100.00,NW,312,9.0,20.0,60,0.00,,,0.00,56.000000,,2013-04-01 13:52:00,
2013-04-01 10:22:00,20.0,5.0,-100.00,NW,320,8.0,20.0,52,0.00,,,0.00,147.000000,,2013-04-01 14:22:00,
2013-04-01 10:33:00,20.0,5.0,-100.00,NW,320,8.0,20.0,52,0.00,,,0.00,147.000000,,2013-04-01 14:33:00,
2013-04-01 10:42:00,20.0,5.0,-100.00,NW,320,8.0,20.0,52,0.00,,,0.00,147.000000,,2013-04-01 14:42:00,
2013-04-01 10:52:00,20.0,5.0,-100.00,NW,320,8.0,20.0,52,0.00,,,0.00,147.000000,,2013-04-01 14:52:00,
2013-04-01 11:22:00,21.0,6.0,-100.00,NW,322,8.0,19.0,51,0.00,,,0.00,233.000000,,2013-04-01 15:22:00,
2013-04-01 11:34:00,21.0,6.0,-100.00,NW,322,8.0,19.0,51,0.00,,,0.00,233.000000,,2013-04-01 15:34:00,
2013-04-01 11:43:00,21.0,6.0,-100.00,NW,322,8.0,19.0,51,0.00,,,0.00,233.000000,,2013-04-01 15:43:00,
2013-04-01 11:53:00,21.0,6.0,-100.00,NW,322,8.0,19.0,51,0.00,,,0.00,233.000000,,2013-04-01 15:53:00,
2013-04-01 12:23:00,21.0,10.0,-100.00,NNW,328,7.0,15.0,62,0.00,,,0.00,269.000000,,2013-04-01 16:23:00,
2013-04-01 12:33:00,21.0,10.0,-100.00,NNW,328,7.0,15.0,62,0.00,,,0.00,269.000000,,2013-04-01 16:33:00,
2013-04-01 12:42:00,21.0,10.0,-100.00,NNW,328,7.0,15.0,62,0.00,,,0.00,269.000000,,2013-04-01 16:42:00,
2013-04-01 12:52:00,21.0,10.0,-100.00,NNW,328,7.0,15.0,62,0.00,,,0.00,269.000000,,2013-04-01 16:52:00,
2013-04-01 14:22:00,20.0,11.0,-100.00,NW,311,7.0,17.0,67,-99.99,,,0.00,299.000000,,2013-04-01 18:22:00,
2013-04-01 14:32:00,20.0,11.0,-100.00,NW,311,7.0,17.0,67,-99.99,,,0.00,299.000000,,2013-04-01 18:32:00,
2013-04-01 14:42:00,20.0,11.0,-100.00,NW,311,7.0,17.0,67,-99.99,,,0.00,299.000000,,2013-04-01 18:42:00,
2013-04-01 14:52:00,20.0,11.0,-100.00,NW,311,7.0,17.0,67,-99.99,,,0.00,299.000000,,2013-04-01 18:52:00,
2013-04-01 15:23:00,25.0,8.0,-100.00,NW,304,8.0,19.0,47,0.00,,,0.00,484.000000,,2013-04-01 19:23:00,
2013-04-01 15:32:00,25.0,8.0,-100.00,NW,304,8.0,19.0,47,0.00,,,0.00,484.000000,,2013-04-01 19:32:00,
2013-04-01 15:42:00,25.0,8.0,-100.00,NW,304,8.0,19.0,47,0.00,,,0.00,484.000000,,2013-04-01 19:42:00,
2013-04-01 15:53:00,25.0,8.0,-100.00,NW,304,8.0,19.0,47,0.00,,,0.00,484.000000,,2013-04-01 19:53:00,
2013-04-01 16:23:00,25.0,5.0,-100.00,West,279,8.0,17.0,42,0.00,,,0.00,465.000000,,2013-04-01 20:23:00,
2013-04-01 16:32:00,25.0,5.0,-100.00,West,279,8.0,17.0,42,0.00,,,0.00,465.000000,,2013-04-01 20:32:00,
2013-04-01 16:42:00,25.0,5.0,-100.00,West,279,8.0,17.0,42,0.00,,,0.00,465.000000,,2013-04-01 20:42:00,
2013-04-01 16:52:00,25.0,5.0,-100.00,West,279,8.0,17.0,42,0.00,,,0.00,465.000000,,2013-04-01 20:52:00,
2013-04-01 17:23:00,26.0,4.0,-100.00,NNW,328,7.0,20.0,39,0.00,,,0.00,472.000000,,2013-04-01 21:23:00,
2013-04-01 17:32:00,26.0,4.0,-100.00,NNW,328,7.0,20.0,39,0.00,,,0.00,472.000000,,2013-04-01 21:32:00,
2013-04-01 17:43:00,26.0,4.0,-100.00,NNW,328,7.0,20.0,39,0.00,,,0.00,472.000000,,2013-04-01 21:43:00,
2013-04-01 17:52:00,26.0,4.0,-100.00,NNW,328,7.0,20.0,39,0.00,,,0.00,472.000000,,2013-04-01 21:52:00,
2013-04-01 18:22:00,28.0,8.0,-100.00,WNW,298,8.0,18.0,42,0.00,,,0.00,315.000000,,2013-04-01 22:22:00,
2013-04-01 18:33:00,28.0,8.0,-100.00,WNW,298,8.0,18.0,42,0.00,,,0.00,315.000000,,2013-04-01 22:33:00,
2013-04-01 18:43:00,28.0,8.0,-100.00,WNW,298,8.0,18.0,42,0.00,,,0.00,315.000000,,2013-04-01 22:43:00,
2013-04-01 18:52:00,28.0,8.0,-100.00,WNW,298,8.0,18.0,42,0.00,,,0.00,315.000000,,2013-04-01 22:52:00,
2013-04-01 19:23:00,28.0,6.0,-100.00,NW,304,6.0,18.0,38,0.00,,,0.00,323.000000,,2013-04-01 23:23:00,
2013-04-01 19:32:00,28.0,6.0,-100.00,NW,304,6.0,18.0,38,0.00,,,0.00,323.000000,,2013-04-01 23:32:00,
2013-04-01 19:43:00,28.0,6.0,-100.00,NW,304,6.0,18.0,38,0.00,,,0.00,323.000000,,2013-04-01 23:43:00,
2013-04-01 19:52:00,28.0,6.0,-100.00,NW,304,6.0,18.0,38,0.00,,,0.00,323.000000,,2013-04-01 23:52:00,
2013-04-01 20:22:00,25.0,5.0,-100.00,NW,306,5.0,16.0,41,0.00,,,0.00,71.000000,,2013-04-02 00:22:00,
2013-04-01 20:33:00,25.0,5.0,-100.00,NW,306,5.0,16.0,41,0.00,,,0.00,71.000000,,2013-04-02 00:33:00,
2013-04-01 20:42:00,25.0,5.0,-100.00,NW,306,5.0,16.0,41,0.00,,,0.00,71.000000,,2013-04-02 00:42:00,
2013-04-01 20:52:00,25.0,5.0,-100.00,NW,306,5.0,16.0,41,0.00,,,0.00,71.000000,,2013-04-02 00:52:00,
2013-04-01 21:22:00,23.0,5.0,-100.00,WNW,288,4.0,17.0,46,0.00,,,0.00,7.000000,,2013-04-02 01:22:00,
2013-04-01 21:32:00,23.0,5.0,-100.00,WNW,288,4.0,17.0,46,0.00,,,0.00,7.000000,,2013-04-02 01:32:00,
2013-04-01 21:42:00,23.0,5.0,-100.00,WNW,288,4.0,17.0,46,0.00,,,0.00,7.000000,,2013-04-02 01:42:00,
2013-04-01 21:52:00,23.0,5.0,-100.00,WNW,288,4.0,17.0,46,0.00,,,0.00,7.000000,,2013-04-02 01:52:00,
2013-04-01 22:22:00,19.0,5.0,-100.00,West,277,2.0,11.0,54,0.00,,,0.00,1.000000,,2013-04-02 02:22:00,
2013-04-01 22:32:00,19.0,5.0,-100.00,West,277,2.0,11.0,54,0.00,,,0.00,1.000000,,2013-04-02 02:32:00,
2013-04-01 22:42:00,19.0,5.0,-100.00,West,277,2.0,11.0,54,0.00,,,0.00,1.000000,,2013-04-02 02:42:00,
2013-04-01 22:52:00,19.0,5.0,-100.00,West,277,2.0,11.0,54,0.00,,,0.00,1.000000,,2013-04-02 02:52:00,
2013-04-01 23:22:00,17.0,6.0,-100.00,WNW,296,2.0,6.0,61,0.00,,,0.00,1.000000,,2013-04-02 03:22:00,
2013-04-01 23:33:00,17.0,6.0,-100.00,WNW,296,2.0,6.0,61,0.00,,,0.00,1.000000,,2013-04-02 03:33:00,
2013-04-01 23:43:00,17.0,6.0,-100.00,WNW,296,2.0,6.0,61,0.00,,,0.00,1.000000,,2013-04-02 03:43:00,
2013-04-01 23:53:00,17.0,6.0,-100.00,WNW,296,2.0,6.0,61,0.00,,,0.00,1.000000,,2013-04-02 03:53:00,